createdAt,value
2023-04-09T00:01:48.578Z,7.57
2023-04-09T00:04:51.335Z,7.18
2023-04-09T00:07:54.360Z,7.13
2023-04-09T00:11:00.007Z,8.50
2023-04-09T00:14:02.701Z,8.55
2023-04-09T00:17:05.536Z,8.15
2023-04-09T00:20:08.916Z,8.10
2023-04-09T00:23:12.958Z,9.15
2023-04-09T00:26:15.843Z,8.18
2023-04-09T00:29:19.060Z,8.23
2023-04-09T00:32:21.776Z,8.18
2023-04-09T00:35:24.733Z,7.10
2023-04-09T00:38:27.517Z,7.53
2023-04-09T00:41:30.454Z,8.98
2023-04-09T00:44:33.406Z,9.05
2023-04-09T00:47:36.544Z,8.38
2023-04-09T00:50:39.578Z,10.15
2023-04-09T00:53:44.240Z,9.13
2023-04-09T00:56:47.336Z,9.60
2023-04-09T00:59:50.029Z,9.05
2023-04-09T01:02:53.560Z,8.88
2023-04-09T01:06:15.403Z,8.73
2023-04-09T01:09:23.842Z,8.63
2023-04-09T01:12:34.609Z,9.00
2023-04-09T01:15:42.326Z,8.45
2023-04-09T01:19:00.316Z,9.45
2023-04-09T01:22:03.455Z,10.10
2023-04-09T01:25:30.676Z,9.38
2023-04-09T01:31:38.990Z,8.35
2023-04-09T01:34:42.777Z,9.75
2023-04-09T01:37:45.832Z,8.98
2023-04-09T01:40:50.375Z,10.40
2023-04-09T01:43:54.309Z,9.57
2023-04-09T01:46:58.689Z,10.57
2023-04-09T01:50:01.939Z,10.35
2023-04-09T01:53:04.733Z,10.95
2023-04-09T01:56:09.148Z,10.23
2023-04-09T01:59:12.624Z,10.25
2023-04-09T02:02:23.891Z,10.68
2023-04-09T02:05:29.758Z,11.32
2023-04-09T02:08:35.174Z,10.73
2023-04-09T02:11:41.709Z,9.13
2023-04-09T02:14:47.241Z,10.13
2023-04-09T02:17:50.031Z,11.43
2023-04-09T02:20:52.889Z,10.88
2023-04-09T02:23:56.636Z,10.90
2023-04-09T02:27:00.353Z,10.52
2023-04-09T02:30:03.245Z,11.32
2023-04-09T02:33:05.973Z,10.73
2023-04-09T02:36:12.931Z,10.18
2023-04-09T02:39:16.382Z,11.13
2023-04-09T02:42:19.199Z,11.13
2023-04-09T02:45:22.441Z,10.75
2023-04-09T02:48:25.406Z,10.40
2023-04-09T02:51:28.289Z,11.02
2023-04-09T02:54:31.429Z,10.43
2023-04-09T02:57:34.434Z,10.65
2023-04-09T03:00:37.269Z,11.88
2023-04-09T03:03:42.674Z,11.52
2023-04-09T03:06:45.687Z,12.32
2023-04-09T03:09:49.834Z,12.45
2023-04-09T03:12:52.753Z,12.52
2023-04-09T03:15:55.495Z,12.00
2023-04-09T03:18:58.138Z,11.57
2023-04-09T03:22:00.803Z,12.15
2023-04-09T03:25:06.911Z,11.20
2023-04-09T03:28:10.994Z,12.20
2023-04-09T03:34:22.042Z,10.85
2023-04-09T03:37:28.590Z,11.32
2023-04-09T03:40:31.969Z,10.82
2023-04-09T03:43:34.710Z,12.18
2023-04-09T03:46:37.717Z,10.77
2023-04-09T03:49:42.824Z,11.90
2023-04-09T03:52:53.789Z,11.18
2023-04-09T03:55:56.842Z,11.65
2023-04-09T03:59:02.028Z,11.35
2023-04-09T04:02:13.035Z,10.73
2023-04-09T04:05:24.917Z,10.43
2023-04-09T04:08:29.517Z,11.35
2023-04-09T04:11:34.316Z,11.20
2023-04-09T04:14:38.472Z,9.98
2023-04-09T04:17:52.084Z,11.02
2023-04-09T04:21:15.700Z,12.75
2023-04-09T04:24:22.774Z,11.18
2023-04-09T04:27:25.767Z,12.75
2023-04-09T04:30:30.760Z,14.15
2023-04-09T04:33:43.867Z,12.55
2023-04-09T04:36:50.148Z,11.55
2023-04-09T04:39:54.582Z,13.07
2023-04-09T04:42:57.973Z,12.65
2023-04-09T04:46:00.927Z,10.95
2023-04-09T04:49:06.715Z,12.93
2023-04-09T04:52:17.773Z,12.27
2023-04-09T04:55:25.869Z,13.77
2023-04-09T04:58:29.758Z,12.73
2023-04-09T05:04:43.351Z,14.00
2023-04-09T05:07:49.444Z,13.98
2023-04-09T05:10:56.511Z,13.93
2023-04-09T05:14:07.051Z,13.63
2023-04-09T05:17:09.972Z,14.00
2023-04-09T05:20:21.174Z,13.13
2023-04-09T05:23:32.942Z,13.82
2023-04-09T05:26:36.248Z,14.23
2023-04-09T05:29:39.017Z,13.43
2023-04-09T05:32:47.071Z,13.75
2023-04-09T05:35:52.001Z,13.90
2023-04-09T05:38:55.493Z,13.23
2023-04-09T05:41:58.973Z,15.43
2023-04-09T05:45:20.444Z,13.00
2023-04-09T05:48:29.199Z,14.45
2023-04-09T05:51:33.016Z,14.50
2023-04-09T05:54:36.828Z,14.95
2023-04-09T05:57:42.578Z,14.00
2023-04-09T06:00:45.612Z,12.52
2023-04-09T06:03:48.522Z,13.15
2023-04-09T06:06:52.276Z,12.82
2023-04-09T06:09:56.676Z,12.32
2023-04-09T06:12:59.340Z,12.63
2023-04-09T06:16:04.934Z,12.50
2023-04-09T06:19:07.786Z,12.90
2023-04-09T06:22:11.630Z,14.02
2023-04-09T06:25:14.427Z,14.40
2023-04-09T06:28:17.317Z,12.25
2023-04-09T06:31:21.089Z,12.85
2023-04-09T06:34:24.071Z,12.65
2023-04-09T06:37:27.100Z,11.55
2023-04-09T06:40:30.172Z,13.27
2023-04-09T06:43:32.889Z,12.23
2023-04-09T06:46:35.705Z,11.95
2023-04-09T06:49:38.515Z,13.40
2023-04-09T06:52:41.894Z,11.40
2023-04-09T06:55:44.595Z,11.32
2023-04-09T06:58:47.891Z,12.60
2023-04-09T07:01:54.722Z,11.98
2023-04-09T07:04:57.631Z,11.82
2023-04-09T07:08:00.778Z,12.40
2023-04-09T07:11:03.972Z,13.20
2023-04-09T07:14:08.800Z,13.75
2023-04-09T07:17:11.841Z,12.23
2023-04-09T07:20:14.807Z,12.43
2023-04-09T07:23:17.707Z,12.43
2023-04-09T07:26:21.717Z,12.93
2023-04-09T07:29:24.630Z,11.88
2023-04-09T07:32:30.705Z,12.27
2023-04-09T07:35:35.070Z,12.75
2023-04-09T07:38:37.944Z,13.45
2023-04-09T07:41:41.065Z,12.93
2023-04-09T07:44:44.398Z,12.05
2023-04-09T07:47:47.512Z,11.82
2023-04-09T07:50:50.658Z,12.55
2023-04-09T07:53:53.567Z,12.50
2023-04-09T07:56:57.223Z,12.13
2023-04-09T08:00:07.851Z,11.43
2023-04-09T08:03:16.777Z,11.20
2023-04-09T08:06:20.241Z,10.35
2023-04-09T08:09:43.040Z,11.77
2023-04-09T08:12:46.440Z,10.50
2023-04-09T08:15:50.030Z,11.52
2023-04-09T08:18:53.594Z,10.77
2023-04-09T08:21:57.114Z,9.57
2023-04-09T08:25:02.557Z,9.30
2023-04-09T08:28:06.003Z,11.65
2023-04-09T08:31:10.173Z,10.25
2023-04-09T08:34:13.643Z,9.25
2023-04-09T08:37:18.151Z,9.18
2023-04-09T08:40:21.131Z,8.82
2023-04-09T08:43:33.693Z,9.35
2023-04-09T08:46:48.272Z,7.43
2023-04-09T08:49:54.576Z,7.35
2023-04-09T08:52:58.843Z,7.15
2023-04-09T08:56:01.938Z,6.28
2023-04-09T08:59:04.778Z,6.53
2023-04-09T09:02:12.250Z,5.95
2023-04-09T09:05:15.900Z,5.53
2023-04-09T09:08:26.228Z,6.60
2023-04-09T09:11:30.707Z,5.68
2023-04-09T09:14:33.628Z,6.18
2023-04-09T09:17:56.697Z,4.82
2023-04-09T09:21:16.717Z,5.57
2023-04-09T09:24:19.500Z,6.00
2023-04-09T09:27:43.605Z,5.18
2023-04-09T09:33:51.770Z,4.78
2023-04-09T09:36:54.713Z,5.05
2023-04-09T09:39:58.307Z,4.40
2023-04-09T09:43:01.240Z,5.28
2023-04-09T09:46:04.554Z,6.07
2023-04-09T09:49:08.183Z,5.70
2023-04-09T09:52:12.361Z,4.85
2023-04-09T09:55:17.019Z,5.57
2023-04-09T09:58:32.430Z,5.13
2023-04-09T10:01:38.422Z,4.57
2023-04-09T10:04:42.072Z,3.92
2023-04-09T10:07:45.492Z,4.13
2023-04-09T10:10:49.010Z,4.22
2023-04-09T10:13:57.974Z,2.97
2023-04-09T10:17:01.577Z,3.33
2023-04-09T10:20:18.685Z,3.78
2023-04-09T10:23:37.493Z,3.45
2023-04-09T10:26:41.518Z,2.95
2023-04-09T10:29:49.806Z,3.30
2023-04-09T10:32:53.606Z,3.35
2023-04-09T10:36:01.669Z,3.17
2023-04-09T10:39:12.916Z,3.13
2023-04-09T10:42:22.017Z,2.95
2023-04-09T10:45:26.697Z,3.35
2023-04-09T10:48:33.608Z,3.05
2023-04-09T10:51:39.165Z,3.05
2023-04-09T10:54:45.768Z,3.00
2023-04-09T10:57:51.483Z,2.85
2023-04-09T11:00:54.302Z,3.33
2023-04-09T11:04:10.731Z,2.80
2023-04-09T11:07:16.184Z,3.33
2023-04-09T11:10:21.016Z,3.00
2023-04-09T11:13:23.879Z,2.95
2023-04-09T11:16:29.023Z,2.80
2023-04-09T11:19:34.416Z,2.63
2023-04-09T11:22:38.938Z,3.38
2023-04-09T11:25:41.953Z,2.72
2023-04-09T11:28:44.653Z,3.50
2023-04-09T11:31:49.562Z,3.42
2023-04-09T11:34:53.427Z,3.53
2023-04-09T11:37:56.332Z,2.67
2023-04-09T11:40:58.996Z,2.83
2023-04-09T11:44:05.952Z,4.05
2023-04-09T11:47:13.317Z,3.53
2023-04-09T11:50:16.911Z,4.28
2023-04-09T11:53:21.471Z,3.28
2023-04-09T11:56:25.654Z,4.00
2023-04-09T11:59:29.023Z,3.58
2023-04-09T12:02:32.035Z,3.58
2023-04-09T12:05:35.973Z,4.03
2023-04-09T12:08:39.675Z,3.72
2023-04-09T12:11:46.533Z,3.80
2023-04-09T12:14:49.477Z,3.00
2023-04-09T12:17:59.954Z,3.30
2023-04-09T12:21:03.213Z,3.70
2023-04-09T12:24:06.149Z,4.95
2023-04-09T12:27:08.925Z,5.50
2023-04-09T12:30:11.888Z,4.70
2023-04-09T12:33:14.774Z,5.40
2023-04-09T12:36:17.749Z,5.38
2023-04-09T12:39:22.813Z,6.00
2023-04-09T12:42:26.053Z,6.93
2023-04-09T12:45:32.290Z,6.95
2023-04-09T12:48:35.587Z,5.83
2023-04-09T12:51:40.160Z,6.03
2023-04-09T12:54:45.409Z,6.20
2023-04-09T12:57:51.309Z,6.10
2023-04-09T13:00:54.784Z,6.47
2023-04-09T13:03:58.247Z,6.57
2023-04-09T13:07:01.658Z,7.85
2023-04-09T13:10:04.906Z,6.28
2023-04-09T13:13:12.353Z,5.82
2023-04-09T13:16:15.129Z,6.15
2023-04-09T13:19:18.301Z,6.50
2023-04-09T13:22:21.242Z,6.47
2023-04-09T13:25:24.219Z,6.57
2023-04-09T13:28:27.404Z,6.00
2023-04-09T13:31:31.137Z,6.32
2023-04-09T13:34:35.403Z,5.78
2023-04-09T13:37:38.701Z,5.93
2023-04-09T13:40:41.549Z,6.95
2023-04-09T13:43:45.598Z,5.95
2023-04-09T13:46:48.542Z,6.93
2023-04-09T13:49:53.366Z,6.68
2023-04-09T13:52:56.440Z,6.35
2023-04-09T13:55:59.416Z,6.22
2023-04-09T13:59:02.474Z,6.47
2023-04-09T14:02:07.263Z,6.05
2023-04-09T14:05:10.346Z,6.20
2023-04-09T14:08:13.201Z,8.63
2023-04-09T14:11:17.139Z,5.60
2023-04-09T14:14:20.360Z,4.03
2023-04-09T14:17:23.484Z,5.35
2023-04-09T14:20:26.631Z,5.10
2023-04-09T14:23:29.596Z,4.15
2023-04-09T14:26:32.409Z,4.78
2023-04-09T14:29:35.576Z,3.35
2023-04-09T14:32:38.577Z,4.18
2023-04-09T14:35:41.305Z,4.78
2023-04-09T14:38:46.537Z,4.50
2023-04-09T14:41:49.397Z,7.05
2023-04-09T14:44:52.098Z,4.63
2023-04-09T14:47:55.465Z,5.82
2023-04-09T14:50:58.836Z,4.70
2023-04-09T14:54:02.217Z,4.65
2023-04-09T14:57:07.503Z,3.97
2023-04-09T15:00:12.602Z,3.90
2023-04-09T15:03:15.704Z,4.32
2023-04-09T15:06:18.811Z,4.88
2023-04-09T15:09:21.625Z,3.58
2023-04-09T15:12:24.522Z,4.28
2023-04-09T15:15:27.346Z,3.90
2023-04-09T15:18:30.082Z,3.78
2023-04-09T15:21:33.203Z,3.80
2023-04-09T15:24:36.005Z,3.70
2023-04-09T15:27:38.940Z,3.72
2023-04-09T15:30:42.262Z,3.60
2023-04-09T15:33:45.793Z,3.92
2023-04-09T15:36:48.940Z,4.03
2023-04-09T15:39:51.979Z,4.03
2023-04-09T15:42:55.293Z,4.47
2023-04-09T15:45:58.101Z,4.10
2023-04-09T15:49:01.212Z,4.78
2023-04-09T15:52:04.343Z,5.00
2023-04-09T15:55:07.925Z,5.50
2023-04-09T15:58:10.745Z,4.45
2023-04-09T16:01:13.964Z,5.05
2023-04-09T16:04:17.258Z,4.45
2023-04-09T16:07:20.172Z,4.93
2023-04-09T16:10:23.131Z,4.35
2023-04-09T16:13:26.263Z,4.68
2023-04-09T16:16:29.286Z,4.90
2023-04-09T16:19:32.309Z,4.60
2023-04-09T16:22:35.137Z,4.38
2023-04-09T16:25:37.943Z,4.43
2023-04-09T16:28:40.717Z,4.82
2023-04-09T16:31:43.778Z,4.65
2023-04-09T16:34:47.682Z,4.63
2023-04-09T16:37:52.483Z,4.25
2023-04-09T16:40:55.675Z,4.22
2023-04-09T16:43:58.552Z,4.70
2023-04-09T16:47:03.060Z,4.88
2023-04-09T16:50:10.799Z,4.45
2023-04-09T16:53:14.147Z,4.30
2023-04-09T16:56:17.358Z,4.55
2023-04-09T16:59:21.609Z,4.32
2023-04-09T17:02:25.053Z,4.50
2023-04-09T17:05:28.334Z,4.00
2023-04-09T17:08:31.908Z,3.40
2023-04-09T17:11:35.492Z,3.25
2023-04-09T17:14:42.692Z,3.35
2023-04-09T17:17:48.869Z,3.47
2023-04-09T17:20:53.431Z,3.57
2023-04-09T17:23:57.057Z,4.07
2023-04-09T17:27:00.820Z,3.80
2023-04-09T17:30:06.937Z,3.38
2023-04-09T17:33:12.219Z,2.87
2023-04-09T17:36:20.515Z,3.28
2023-04-09T17:39:29.825Z,3.53
2023-04-09T17:42:35.059Z,3.70
2023-04-09T17:45:39.004Z,4.43
2023-04-09T17:48:43.643Z,4.53
2023-04-09T17:51:47.731Z,4.65
2023-04-09T17:54:51.943Z,4.47
2023-04-09T17:57:55.251Z,4.50
2023-04-09T18:01:00.199Z,5.30
2023-04-09T18:04:03.898Z,5.68
2023-04-09T18:07:07.470Z,5.18
2023-04-09T18:10:12.743Z,3.47
2023-04-09T18:13:16.148Z,3.20
2023-04-09T18:16:21.371Z,3.72
2023-04-09T18:19:24.822Z,3.97
2023-04-09T18:22:27.881Z,4.45
2023-04-09T18:25:31.017Z,6.82
2023-04-09T18:28:35.420Z,6.93
2023-04-09T18:31:38.355Z,7.47
2023-04-09T18:34:41.650Z,6.10
2023-04-09T18:37:45.119Z,4.90
2023-04-09T18:40:48.242Z,4.57
2023-04-09T18:43:51.655Z,4.70
2023-04-09T18:46:54.482Z,6.38
2023-04-09T18:49:57.941Z,6.43
2023-04-09T18:53:01.240Z,5.28
2023-04-09T18:56:04.374Z,4.25
2023-04-09T18:59:07.204Z,5.43
2023-04-09T19:02:10.310Z,5.97
2023-04-09T19:05:13.139Z,6.72
2023-04-09T19:08:16.975Z,10.05
2023-04-09T19:11:19.912Z,14.73
2023-04-09T19:14:22.632Z,13.18
2023-04-09T19:17:25.959Z,10.50
2023-04-09T19:20:29.329Z,9.35
2023-04-09T19:23:34.552Z,11.88
2023-04-09T19:26:37.938Z,18.63
2023-04-09T19:29:40.795Z,16.73
2023-04-09T19:32:48.153Z,15.43
2023-04-09T19:35:52.483Z,13.60
2023-04-09T19:38:55.597Z,14.05
2023-04-09T19:41:58.961Z,10.70
2023-04-09T19:45:02.048Z,12.60
2023-04-09T19:48:08.242Z,12.57
2023-04-09T19:51:18.257Z,8.57
2023-04-09T19:54:23.312Z,13.77
2023-04-09T19:57:26.933Z,10.80
2023-04-09T20:00:29.983Z,8.52
2023-04-09T20:03:33.714Z,17.38
2023-04-09T20:06:36.536Z,15.25
2023-04-09T20:09:41.755Z,12.43
2023-04-09T20:12:47.828Z,15.48
2023-04-09T20:15:50.547Z,14.73
2023-04-09T20:18:53.757Z,15.25
2023-04-09T20:21:57.445Z,13.35
2023-04-09T20:25:01.010Z,11.35
2023-04-09T20:28:04.657Z,11.88
2023-04-09T20:31:10.890Z,11.02
2023-04-09T20:34:13.855Z,11.80
2023-04-09T20:37:16.862Z,15.02
2023-04-09T20:40:22.605Z,14.88
2023-04-09T20:43:25.282Z,15.75
2023-04-09T20:46:28.235Z,13.98
2023-04-09T20:49:31.289Z,13.80
2023-04-09T20:52:34.058Z,14.25
2023-04-09T20:55:37.674Z,15.40
2023-04-09T20:58:40.548Z,12.70
2023-04-09T21:01:43.601Z,14.75
2023-04-09T21:04:46.922Z,13.80
2023-04-09T21:07:50.058Z,15.60
2023-04-09T21:10:53.393Z,17.60
2023-04-09T21:13:56.347Z,13.18
2023-04-09T21:17:01.488Z,13.23
2023-04-09T21:20:04.878Z,13.40
2023-04-09T21:23:07.711Z,13.60
2023-04-09T21:26:13.550Z,14.27
2023-04-09T21:29:16.217Z,13.68
2023-04-09T21:32:19.020Z,14.02
2023-04-09T21:35:22.092Z,14.38
2023-04-09T21:38:24.972Z,14.77
2023-04-09T21:41:27.742Z,14.43
2023-04-09T21:44:30.839Z,13.85
2023-04-09T21:47:33.876Z,13.40
2023-04-09T21:50:38.928Z,13.50
2023-04-09T21:53:41.851Z,15.38
2023-04-09T21:56:44.679Z,13.52
2023-04-09T21:59:49.492Z,14.35
2023-04-09T22:02:52.491Z,14.82
2023-04-09T22:05:55.511Z,14.23
2023-04-09T22:08:58.788Z,13.52
2023-04-09T22:12:03.110Z,13.45
2023-04-09T22:15:07.122Z,15.52
2023-04-09T22:18:09.860Z,14.27
2023-04-09T22:21:16.462Z,14.50
2023-04-09T22:24:19.651Z,14.35
2023-04-09T22:27:22.576Z,15.00
2023-04-09T22:30:25.264Z,14.52
2023-04-09T22:33:28.295Z,15.68
2023-04-09T22:36:32.202Z,14.32
2023-04-09T22:39:35.017Z,15.13
2023-04-09T22:42:37.772Z,14.80
2023-04-09T22:45:40.400Z,13.50
2023-04-09T22:48:45.011Z,12.68
2023-04-09T22:51:48.745Z,14.75
2023-04-09T22:54:51.731Z,14.68
2023-04-09T22:57:55.330Z,15.05
2023-04-09T23:00:58.527Z,15.48
2023-04-09T23:04:02.218Z,15.52
2023-04-09T23:07:05.137Z,16.85
2023-04-09T23:10:08.237Z,14.77
2023-04-09T23:13:14.252Z,14.95
2023-04-09T23:16:17.452Z,15.85
2023-04-09T23:19:20.232Z,15.60
2023-04-09T23:22:24.644Z,17.85
2023-04-09T23:25:27.362Z,16.30
2023-04-09T23:28:30.607Z,17.15
2023-04-09T23:31:33.278Z,18.10
2023-04-09T23:34:36.002Z,18.50
2023-04-09T23:37:42.773Z,15.93
2023-04-09T23:40:47.581Z,15.38
2023-04-09T23:43:51.551Z,16.17
2023-04-09T23:46:54.453Z,16.60
2023-04-09T23:49:57.253Z,15.73
2023-04-09T23:53:03.698Z,16.42
2023-04-09T23:56:06.828Z,16.07
2023-04-09T23:59:09.638Z,16.40
